sensor_id;sensor_type;location;lat;lon;timestamp;temperature;humidity
20483;DHT22;10400;53.198;6.592;2023-09-19T00:00:00;15.40;99.90
20483;DHT22;10400;53.198;6.592;2023-09-19T00:02:27;15.40;99.90
20483;DHT22;10400;53.198;6.592;2023-09-19T00:04:52;15.40;99.90
20483;DHT22;10400;53.198;6.592;2023-09-19T00:07:19;15.30;99.90
20483;DHT22;10400;53.198;6.592;2023-09-19T00:09:44;15.30;99.90
20483;DHT22;10400;53.198;6.592;2023-09-19T00:12:10;15.30;99.90
20483;DHT22;10400;53.198;6.592;2023-09-19T00:14:38;15.20;99.90
20483;DHT22;10400;53.198;6.592;2023-09-19T00:17:04;15.20;99.90
20483;DHT22;10400;53.198;6.592;2023-09-19T00:19:36;15.20;99.90
20483;DHT22;10400;53.198;6.592;2023-09-19T00:22:02;15.10;99.90
20483;DHT22;10400;53.198;6.592;2023-09-19T00:24:28;15.10;99.90
20483;DHT22;10400;53.198;6.592;2023-09-19T00:26:54;15.00;99.90
20483;DHT22;10400;53.198;6.592;2023-09-19T00:29:21;15.00;99.90
20483;DHT22;10400;53.198;6.592;2023-09-19T00:31:48;15.00;99.90
20483;DHT22;10400;53.198;6.592;2023-09-19T00:34:15;15.00;99.90
20483;DHT22;10400;53.198;6.592;2023-09-19T00:36:41;15.00;99.90
20483;DHT22;10400;53.198;6.592;2023-09-19T00:39:08;14.90;99.90
20483;DHT22;10400;53.198;6.592;2023-09-19T00:41:34;14.90;99.90
20483;DHT22;10400;53.198;6.592;2023-09-19T00:44:04;14.90;99.90
20483;DHT22;10400;53.198;6.592;2023-09-19T00:46:31;14.80;99.90
20483;DHT22;10400;53.198;6.592;2023-09-19T00:48:58;14.80;99.90
20483;DHT22;10400;53.198;6.592;2023-09-19T00:51:25;14.70;99.90
20483;DHT22;10400;53.198;6.592;2023-09-19T00:53:52;14.70;99.90
20483;DHT22;10400;53.198;6.592;2023-09-19T00:56:18;14.70;99.90
20483;DHT22;10400;53.198;6.592;2023-09-19T00:58:48;14.70;99.90
20483;DHT22;10400;53.198;6.592;2023-09-19T01:01:14;14.70;99.90
20483;DHT22;10400;53.198;6.592;2023-09-19T01:03:44;14.70;99.90
20483;DHT22;10400;53.198;6.592;2023-09-19T01:06:10;14.60;99.90
20483;DHT22;10400;53.198;6.592;2023-09-19T01:08:36;14.60;99.90
20483;DHT22;10400;53.198;6.592;2023-09-19T01:11:05;14.50;99.90
20483;DHT22;10400;53.198;6.592;2023-09-19T01:13:58;14.50;99.90
20483;DHT22;10400;53.198;6.592;2023-09-19T01:22:16;14.50;99.90
20483;DHT22;10400;53.198;6.592;2023-09-19T01:27:35;14.40;99.90
20483;DHT22;10400;53.198;6.592;2023-09-19T01:30:18;14.40;99.90
20483;DHT22;10400;53.198;6.592;2023-09-19T01:32:49;14.40;99.90
20483;DHT22;10400;53.198;6.592;2023-09-19T01:35:17;14.40;99.90
20483;DHT22;10400;53.198;6.592;2023-09-19T01:37:44;14.30;99.90
20483;DHT22;10400;53.198;6.592;2023-09-19T01:40:12;14.30;99.90
20483;DHT22;10400;53.198;6.592;2023-09-19T01:42:50;14.30;99.90
20483;DHT22;10400;53.198;6.592;2023-09-19T01:48:12;14.20;99.90
20483;DHT22;10400;53.198;6.592;2023-09-19T01:51:02;14.30;99.90
20483;DHT22;10400;53.198;6.592;2023-09-19T01:53:41;14.30;99.90
20483;DHT22;10400;53.198;6.592;2023-09-19T01:58:56;14.20;99.90
20483;DHT22;10400;53.198;6.592;2023-09-19T02:01:25;14.20;99.90
20483;DHT22;10400;53.198;6.592;2023-09-19T02:03:52;14.20;99.90
20483;DHT22;10400;53.198;6.592;2023-09-19T02:06:18;14.20;99.90
20483;DHT22;10400;53.198;6.592;2023-09-19T02:08:45;14.10;99.90
20483;DHT22;10400;53.198;6.592;2023-09-19T02:11:11;14.20;99.90
20483;DHT22;10400;53.198;6.592;2023-09-19T02:13:38;14.10;99.90
20483;DHT22;10400;53.198;6.592;2023-09-19T02:16:04;14.20;99.90
20483;DHT22;10400;53.198;6.592;2023-09-19T02:18:30;14.10;99.90
20483;DHT22;10400;53.198;6.592;2023-09-19T02:20:56;14.10;99.90
20483;DHT22;10400;53.198;6.592;2023-09-19T02:23:24;14.10;99.90
20483;DHT22;10400;53.198;6.592;2023-09-19T02:25:56;14.10;99.90
20483;DHT22;10400;53.198;6.592;2023-09-19T02:28:26;14.00;99.90
20483;DHT22;10400;53.198;6.592;2023-09-19T02:30:58;14.00;99.90
20483;DHT22;10400;53.198;6.592;2023-09-19T02:33:24;14.00;99.90
20483;DHT22;10400;53.198;6.592;2023-09-19T02:35:55;14.00;99.90
20483;DHT22;10400;53.198;6.592;2023-09-19T02:38:23;14.00;99.90
20483;DHT22;10400;53.198;6.592;2023-09-19T02:40:50;13.90;99.90
20483;DHT22;10400;53.198;6.592;2023-09-19T02:43:16;13.90;99.90
20483;DHT22;10400;53.198;6.592;2023-09-19T02:45:42;13.90;99.90
20483;DHT22;10400;53.198;6.592;2023-09-19T02:48:08;13.90;99.90
20483;DHT22;10400;53.198;6.592;2023-09-19T02:50:34;13.90;99.90
20483;DHT22;10400;53.198;6.592;2023-09-19T02:53:00;13.90;99.90
20483;DHT22;10400;53.198;6.592;2023-09-19T02:55:25;13.90;99.90
20483;DHT22;10400;53.198;6.592;2023-09-19T02:57:52;13.90;99.90
20483;DHT22;10400;53.198;6.592;2023-09-19T03:00:20;13.80;99.90
20483;DHT22;10400;53.198;6.592;2023-09-19T03:02:50;13.80;99.90
20483;DHT22;10400;53.198;6.592;2023-09-19T03:05:16;13.80;99.90
20483;DHT22;10400;53.198;6.592;2023-09-19T03:07:42;13.80;99.90
20483;DHT22;10400;53.198;6.592;2023-09-19T03:10:09;13.90;99.90
20483;DHT22;10400;53.198;6.592;2023-09-19T03:12:35;13.90;99.90
20483;DHT22;10400;53.198;6.592;2023-09-19T03:15:01;13.90;99.90
20483;DHT22;10400;53.198;6.592;2023-09-19T03:17:26;13.90;99.90
20483;DHT22;10400;53.198;6.592;2023-09-19T03:19:52;13.90;99.90
20483;DHT22;10400;53.198;6.592;2023-09-19T03:22:19;13.90;99.90
20483;DHT22;10400;53.198;6.592;2023-09-19T03:24:45;13.90;99.90
20483;DHT22;10400;53.198;6.592;2023-09-19T03:27:12;13.90;99.90
20483;DHT22;10400;53.198;6.592;2023-09-19T03:29:42;13.90;99.90
20483;DHT22;10400;53.198;6.592;2023-09-19T03:32:08;13.90;99.90
20483;DHT22;10400;53.198;6.592;2023-09-19T03:34:36;13.90;99.90
20483;DHT22;10400;53.198;6.592;2023-09-19T03:37:06;13.90;99.90
20483;DHT22;10400;53.198;6.592;2023-09-19T03:39:32;13.90;99.90
20483;DHT22;10400;53.198;6.592;2023-09-19T03:41:58;13.90;99.90
20483;DHT22;10400;53.198;6.592;2023-09-19T03:44:23;13.90;99.90
20483;DHT22;10400;53.198;6.592;2023-09-19T03:50:11;13.80;99.90
20483;DHT22;10400;53.198;6.592;2023-09-19T03:52:37;13.80;99.90
20483;DHT22;10400;53.198;6.592;2023-09-19T03:55:03;13.80;99.90
20483;DHT22;10400;53.198;6.592;2023-09-19T03:57:29;13.80;99.90
20483;DHT22;10400;53.198;6.592;2023-09-19T03:59:55;13.80;99.90
20483;DHT22;10400;53.198;6.592;2023-09-19T04:02:24;13.70;99.90
20483;DHT22;10400;53.198;6.592;2023-09-19T04:04:54;13.70;99.90
20483;DHT22;10400;53.198;6.592;2023-09-19T04:07:20;13.60;99.90
20483;DHT22;10400;53.198;6.592;2023-09-19T04:09:48;13.70;99.90
20483;DHT22;10400;53.198;6.592;2023-09-19T04:12:14;13.70;99.90
20483;DHT22;10400;53.198;6.592;2023-09-19T04:14:42;13.70;99.90
20483;DHT22;10400;53.198;6.592;2023-09-19T04:17:08;13.70;99.90
20483;DHT22;10400;53.198;6.592;2023-09-19T04:19:33;13.80;99.90
20483;DHT22;10400;53.198;6.592;2023-09-19T04:21:59;13.80;99.90
20483;DHT22;10400;53.198;6.592;2023-09-19T04:24:25;13.80;99.90
20483;DHT22;10400;53.198;6.592;2023-09-19T04:26:50;13.80;99.90
20483;DHT22;10400;53.198;6.592;2023-09-19T04:29:16;13.80;99.90
20483;DHT22;10400;53.198;6.592;2023-09-19T04:31:44;13.90;99.90
20483;DHT22;10400;53.198;6.592;2023-09-19T04:34:11;13.90;99.90
20483;DHT22;10400;53.198;6.592;2023-09-19T04:36:39;13.90;99.90
20483;DHT22;10400;53.198;6.592;2023-09-19T04:39:07;13.80;99.90
20483;DHT22;10400;53.198;6.592;2023-09-19T04:41:34;13.90;99.90
20483;DHT22;10400;53.198;6.592;2023-09-19T04:44:00;13.90;99.90
20483;DHT22;10400;53.198;6.592;2023-09-19T04:46:25;13.90;99.90
20483;DHT22;10400;53.198;6.592;2023-09-19T04:48:51;13.90;99.90
20483;DHT22;10400;53.198;6.592;2023-09-19T04:51:17;13.90;99.90
20483;DHT22;10400;53.198;6.592;2023-09-19T04:53:44;13.90;99.90
20483;DHT22;10400;53.198;6.592;2023-09-19T04:56:10;13.90;99.90
20483;DHT22;10400;53.198;6.592;2023-09-19T04:58:35;13.90;99.90
20483;DHT22;10400;53.198;6.592;2023-09-19T05:01:01;13.90;99.90
20483;DHT22;10400;53.198;6.592;2023-09-19T05:03:27;13.90;99.90
20483;DHT22;10400;53.198;6.592;2023-09-19T05:05:53;13.90;99.90
20483;DHT22;10400;53.198;6.592;2023-09-19T05:08:19;13.90;99.90
20483;DHT22;10400;53.198;6.592;2023-09-19T05:10:45;13.90;99.90
20483;DHT22;10400;53.198;6.592;2023-09-19T05:13:10;14.00;99.90
20483;DHT22;10400;53.198;6.592;2023-09-19T05:15:37;14.00;99.90
20483;DHT22;10400;53.198;6.592;2023-09-19T05:18:04;14.00;99.90
20483;DHT22;10400;53.198;6.592;2023-09-19T05:20:31;14.00;99.90
20483;DHT22;10400;53.198;6.592;2023-09-19T05:23:04;14.00;99.90
20483;DHT22;10400;53.198;6.592;2023-09-19T05:25:33;14.00;99.90
20483;DHT22;10400;53.198;6.592;2023-09-19T05:28:02;14.00;99.90
20483;DHT22;10400;53.198;6.592;2023-09-19T05:30:29;14.10;99.90
20483;DHT22;10400;53.198;6.592;2023-09-19T05:32:58;14.10;99.90
20483;DHT22;10400;53.198;6.592;2023-09-19T05:35:24;14.10;99.90
20483;DHT22;10400;53.198;6.592;2023-09-19T05:37:51;14.10;99.90
20483;DHT22;10400;53.198;6.592;2023-09-19T05:40:17;14.10;99.90
20483;DHT22;10400;53.198;6.592;2023-09-19T05:42:43;14.20;99.90
20483;DHT22;10400;53.198;6.592;2023-09-19T05:45:10;14.20;99.90
20483;DHT22;10400;53.198;6.592;2023-09-19T05:47:41;14.20;99.90
20483;DHT22;10400;53.198;6.592;2023-09-19T05:50:12;14.20;99.90
20483;DHT22;10400;53.198;6.592;2023-09-19T05:52:38;14.20;99.90
20483;DHT22;10400;53.198;6.592;2023-09-19T05:55:05;14.20;99.90
20483;DHT22;10400;53.198;6.592;2023-09-19T05:57:32;14.20;99.90
20483;DHT22;10400;53.198;6.592;2023-09-19T05:59:58;14.20;99.90
20483;DHT22;10400;53.198;6.592;2023-09-19T06:02:23;14.20;99.90
20483;DHT22;10400;53.198;6.592;2023-09-19T06:04:54;14.20;99.90
20483;DHT22;10400;53.198;6.592;2023-09-19T06:07:21;14.30;99.90
20483;DHT22;10400;53.198;6.592;2023-09-19T06:09:48;14.30;99.90
20483;DHT22;10400;53.198;6.592;2023-09-19T06:12:14;14.30;99.90
20483;DHT22;10400;53.198;6.592;2023-09-19T06:14:42;14.30;99.90
20483;DHT22;10400;53.198;6.592;2023-09-19T06:17:08;14.30;99.90
20483;DHT22;10400;53.198;6.592;2023-09-19T06:19:34;14.40;99.90
20483;DHT22;10400;53.198;6.592;2023-09-19T06:22:00;14.40;99.90
20483;DHT22;10400;53.198;6.592;2023-09-19T06:24:25;14.40;99.90
20483;DHT22;10400;53.198;6.592;2023-09-19T06:26:51;14.50;99.90
20483;DHT22;10400;53.198;6.592;2023-09-19T06:29:18;14.50;99.90
20483;DHT22;10400;53.198;6.592;2023-09-19T06:31:46;14.60;99.90
20483;DHT22;10400;53.198;6.592;2023-09-19T06:34:12;14.50;99.90
20483;DHT22;10400;53.198;6.592;2023-09-19T06:36:41;14.60;99.90
20483;DHT22;10400;53.198;6.592;2023-09-19T06:39:07;14.60;99.90
20483;DHT22;10400;53.198;6.592;2023-09-19T06:41:39;14.60;99.90
20483;DHT22;10400;53.198;6.592;2023-09-19T06:44:06;14.70;99.90
20483;DHT22;10400;53.198;6.592;2023-09-19T06:46:32;14.70;99.90
20483;DHT22;10400;53.198;6.592;2023-09-19T06:49:01;14.80;99.90
20483;DHT22;10400;53.198;6.592;2023-09-19T06:51:28;14.80;99.90
20483;DHT22;10400;53.198;6.592;2023-09-19T06:53:55;14.90;99.90
20483;DHT22;10400;53.198;6.592;2023-09-19T06:56:22;14.90;99.90
20483;DHT22;10400;53.198;6.592;2023-09-19T06:58:48;15.00;99.90
20483;DHT22;10400;53.198;6.592;2023-09-19T07:01:14;15.10;99.90
20483;DHT22;10400;53.198;6.592;2023-09-19T07:03:40;15.10;99.90
20483;DHT22;10400;53.198;6.592;2023-09-19T07:06:06;15.20;99.90
20483;DHT22;10400;53.198;6.592;2023-09-19T07:08:32;15.30;99.90
20483;DHT22;10400;53.198;6.592;2023-09-19T07:10:58;15.30;99.90
20483;DHT22;10400;53.198;6.592;2023-09-19T07:13:23;15.30;99.90
20483;DHT22;10400;53.198;6.592;2023-09-19T07:15:50;15.30;99.90
20483;DHT22;10400;53.198;6.592;2023-09-19T07:18:16;15.30;99.90
20483;DHT22;10400;53.198;6.592;2023-09-19T07:20:43;15.50;99.90
20483;DHT22;10400;53.198;6.592;2023-09-19T07:23:20;15.50;99.90
20483;DHT22;10400;53.198;6.592;2023-09-19T07:25:47;15.50;99.90
20483;DHT22;10400;53.198;6.592;2023-09-19T07:28:14;15.50;99.90
20483;DHT22;10400;53.198;6.592;2023-09-19T07:30:40;15.60;99.90
20483;DHT22;10400;53.198;6.592;2023-09-19T07:33:07;15.50;99.90
20483;DHT22;10400;53.198;6.592;2023-09-19T07:35:33;15.50;99.90
20483;DHT22;10400;53.198;6.592;2023-09-19T07:37:59;15.40;99.90
20483;DHT22;10400;53.198;6.592;2023-09-19T07:40:27;15.50;99.90
20483;DHT22;10400;53.198;6.592;2023-09-19T07:42:57;15.60;99.90
20483;DHT22;10400;53.198;6.592;2023-09-19T07:45:30;15.60;99.90
20483;DHT22;10400;53.198;6.592;2023-09-19T07:47:56;15.70;99.90
20483;DHT22;10400;53.198;6.592;2023-09-19T07:50:22;15.70;99.90
20483;DHT22;10400;53.198;6.592;2023-09-19T07:52:49;15.90;99.90
20483;DHT22;10400;53.198;6.592;2023-09-19T07:55:16;15.90;99.90
20483;DHT22;10400;53.198;6.592;2023-09-19T07:57:43;15.90;99.90
20483;DHT22;10400;53.198;6.592;2023-09-19T08:00:10;15.90;99.90
20483;DHT22;10400;53.198;6.592;2023-09-19T08:02:40;15.80;99.90
20483;DHT22;10400;53.198;6.592;2023-09-19T08:05:10;15.80;99.90
20483;DHT22;10400;53.198;6.592;2023-09-19T08:07:40;15.90;99.90
20483;DHT22;10400;53.198;6.592;2023-09-19T08:10:06;15.90;99.90
20483;DHT22;10400;53.198;6.592;2023-09-19T08:12:43;15.90;99.90
20483;DHT22;10400;53.198;6.592;2023-09-19T08:15:17;15.90;99.90
20483;DHT22;10400;53.198;6.592;2023-09-19T08:17:42;15.80;99.90
20483;DHT22;10400;53.198;6.592;2023-09-19T08:20:09;15.70;99.90
20483;DHT22;10400;53.198;6.592;2023-09-19T08:22:52;15.80;99.90
20483;DHT22;10400;53.198;6.592;2023-09-19T08:25:20;15.90;99.90
20483;DHT22;10400;53.198;6.592;2023-09-19T08:27:47;16.00;99.90
20483;DHT22;10400;53.198;6.592;2023-09-19T08:30:19;16.10;99.90
20483;DHT22;10400;53.198;6.592;2023-09-19T08:32:49;16.00;99.90
20483;DHT22;10400;53.198;6.592;2023-09-19T08:35:15;16.10;99.90
20483;DHT22;10400;53.198;6.592;2023-09-19T08:37:42;16.20;99.90
20483;DHT22;10400;53.198;6.592;2023-09-19T08:40:08;16.20;99.90
20483;DHT22;10400;53.198;6.592;2023-09-19T08:42:52;16.30;99.90
20483;DHT22;10400;53.198;6.592;2023-09-19T08:45:19;16.30;99.90
20483;DHT22;10400;53.198;6.592;2023-09-19T08:50:51;16.50;99.90
20483;DHT22;10400;53.198;6.592;2023-09-19T08:53:27;16.50;99.90
20483;DHT22;10400;53.198;6.592;2023-09-19T08:55:57;16.60;99.90
20483;DHT22;10400;53.198;6.592;2023-09-19T08:58:34;16.70;99.90
20483;DHT22;10400;53.198;6.592;2023-09-19T09:01:06;16.80;99.90
20483;DHT22;10400;53.198;6.592;2023-09-19T09:03:33;16.80;99.90
20483;DHT22;10400;53.198;6.592;2023-09-19T09:06:00;16.80;99.90
20483;DHT22;10400;53.198;6.592;2023-09-19T09:08:27;16.90;99.90
20483;DHT22;10400;53.198;6.592;2023-09-19T09:10:54;16.90;99.90
20483;DHT22;10400;53.198;6.592;2023-09-19T09:13:20;16.90;99.90
20483;DHT22;10400;53.198;6.592;2023-09-19T09:15:47;16.90;99.90
20483;DHT22;10400;53.198;6.592;2023-09-19T09:18:13;17.00;99.90
20483;DHT22;10400;53.198;6.592;2023-09-19T09:20:39;17.00;99.90
20483;DHT22;10400;53.198;6.592;2023-09-19T09:23:06;17.10;99.90
20483;DHT22;10400;53.198;6.592;2023-09-19T09:25:49;17.20;99.90
20483;DHT22;10400;53.198;6.592;2023-09-19T09:28:20;17.00;99.90
20483;DHT22;10400;53.198;6.592;2023-09-19T09:30:47;17.10;99.90
20483;DHT22;10400;53.198;6.592;2023-09-19T09:33:13;17.20;99.90
20483;DHT22;10400;53.198;6.592;2023-09-19T09:36:07;17.20;99.90
20483;DHT22;10400;53.198;6.592;2023-09-19T09:38:44;17.30;99.90
20483;DHT22;10400;53.198;6.592;2023-09-19T09:41:11;17.30;99.90
20483;DHT22;10400;53.198;6.592;2023-09-19T09:43:41;17.50;99.90
20483;DHT22;10400;53.198;6.592;2023-09-19T09:46:15;17.60;99.90
20483;DHT22;10400;53.198;6.592;2023-09-19T09:51:33;17.80;99.90
20483;DHT22;10400;53.198;6.592;2023-09-19T09:54:17;17.90;99.90
20483;DHT22;10400;53.198;6.592;2023-09-19T09:56:53;17.80;99.90
20483;DHT22;10400;53.198;6.592;2023-09-19T09:59:49;17.80;99.90
20483;DHT22;10400;53.198;6.592;2023-09-19T10:02:16;17.80;99.90
20483;DHT22;10400;53.198;6.592;2023-09-19T10:04:55;17.90;99.90
20483;DHT22;10400;53.198;6.592;2023-09-19T10:07:36;17.90;99.90
20483;DHT22;10400;53.198;6.592;2023-09-19T10:10:04;18.00;96.20
20483;DHT22;10400;53.198;6.592;2023-09-19T10:12:54;18.10;85.90
20483;DHT22;10400;53.198;6.592;2023-09-19T10:15:23;18.20;72.00
20483;DHT22;10400;53.198;6.592;2023-09-19T10:17:52;18.10;55.10
20483;DHT22;10400;53.198;6.592;2023-09-19T10:20:22;18.20;67.70
20483;DHT22;10400;53.198;6.592;2023-09-19T10:23:07;18.30;54.80
20483;DHT22;10400;53.198;6.592;2023-09-19T10:25:40;18.50;47.80
20483;DHT22;10400;53.198;6.592;2023-09-19T10:28:10;18.50;38.60
20483;DHT22;10400;53.198;6.592;2023-09-19T10:30:56;18.60;24.20
20483;DHT22;10400;53.198;6.592;2023-09-19T10:33:27;18.60;31.30
20483;DHT22;10400;53.198;6.592;2023-09-19T10:36:00;18.70;30.60
20483;DHT22;10400;53.198;6.592;2023-09-19T10:38:29;18.80;30.00
20483;DHT22;10400;53.198;6.592;2023-09-19T10:40:57;18.90;17.20
20483;DHT22;10400;53.198;6.592;2023-09-19T10:43:31;18.90;1.00
20483;DHT22;10400;53.198;6.592;2023-09-19T10:46:01;18.70;1.00
20483;DHT22;10400;53.198;6.592;2023-09-19T10:48:31;18.70;1.00
20483;DHT22;10400;53.198;6.592;2023-09-19T10:56:32;18.80;1.00
20483;DHT22;10400;53.198;6.592;2023-09-19T10:59:09;18.60;1.00
20483;DHT22;10400;53.198;6.592;2023-09-19T11:01:52;18.40;1.00
20483;DHT22;10400;53.198;6.592;2023-09-19T11:04:36;18.50;1.00
20483;DHT22;10400;53.198;6.592;2023-09-19T11:07:11;18.60;1.00
20483;DHT22;10400;53.198;6.592;2023-09-19T11:15:08;18.30;1.00
20483;DHT22;10400;53.198;6.592;2023-09-19T11:17:40;18.30;1.00
20483;DHT22;10400;53.198;6.592;2023-09-19T11:28:28;18.50;1.00
20483;DHT22;10400;53.198;6.592;2023-09-19T11:30:56;18.40;1.00
20483;DHT22;10400;53.198;6.592;2023-09-19T11:33:31;18.20;1.00
20483;DHT22;10400;53.198;6.592;2023-09-19T11:36:08;18.20;21.10
20483;DHT22;10400;53.198;6.592;2023-09-19T11:41:39;18.30;10.80
20483;DHT22;10400;53.198;6.592;2023-09-19T11:46:32;18.60;1.00
20483;DHT22;10400;53.198;6.592;2023-09-19T11:49:08;18.50;1.00
20483;DHT22;10400;53.198;6.592;2023-09-19T11:51:42;18.50;1.00
20483;DHT22;10400;53.198;6.592;2023-09-19T11:54:12;18.70;1.00
20483;DHT22;10400;53.198;6.592;2023-09-19T11:56:49;18.70;1.00
20483;DHT22;10400;53.198;6.592;2023-09-19T11:59:29;18.90;1.00
20483;DHT22;10400;53.198;6.592;2023-09-19T12:02:03;18.80;1.00
20483;DHT22;10400;53.198;6.592;2023-09-19T12:04:43;18.60;1.00
20483;DHT22;10400;53.198;6.592;2023-09-19T12:07:15;18.60;1.00
20483;DHT22;10400;53.198;6.592;2023-09-19T12:09:48;18.40;11.50
20483;DHT22;10400;53.198;6.592;2023-09-19T12:12:26;18.30;27.50
20483;DHT22;10400;53.198;6.592;2023-09-19T12:14:55;18.20;16.40
20483;DHT22;10400;53.198;6.592;2023-09-19T12:17:39;18.20;25.20
20483;DHT22;10400;53.198;6.592;2023-09-19T12:20:07;18.20;30.60
20483;DHT22;10400;53.198;6.592;2023-09-19T12:22:40;18.40;24.80
20483;DHT22;10400;53.198;6.592;2023-09-19T12:25:06;18.30;27.90
20483;DHT22;10400;53.198;6.592;2023-09-19T12:27:42;18.30;33.20
20483;DHT22;10400;53.198;6.592;2023-09-19T12:30:09;18.30;50.30
20483;DHT22;10400;53.198;6.592;2023-09-19T12:32:36;18.30;50.30
20483;DHT22;10400;53.198;6.592;2023-09-19T12:35:02;18.20;56.60
20483;DHT22;10400;53.198;6.592;2023-09-19T12:37:35;18.10;70.40
20483;DHT22;10400;53.198;6.592;2023-09-19T12:40:06;18.10;75.40
20483;DHT22;10400;53.198;6.592;2023-09-19T12:42:43;18.00;78.30
20483;DHT22;10400;53.198;6.592;2023-09-19T12:45:11;18.20;79.80
20483;DHT22;10400;53.198;6.592;2023-09-19T12:47:39;18.30;80.60
20483;DHT22;10400;53.198;6.592;2023-09-19T12:50:06;18.40;63.90
20483;DHT22;10400;53.198;6.592;2023-09-19T12:53:02;18.40;57.60
20483;DHT22;10400;53.198;6.592;2023-09-19T12:55:29;18.30;60.80
20483;DHT22;10400;53.198;6.592;2023-09-19T12:58:13;18.30;60.70
20483;DHT22;10400;53.198;6.592;2023-09-19T13:00:44;18.50;52.90
20483;DHT22;10400;53.198;6.592;2023-09-19T13:03:26;18.40;52.70
20483;DHT22;10400;53.198;6.592;2023-09-19T13:05:59;18.50;61.70
20483;DHT22;10400;53.198;6.592;2023-09-19T13:08:32;18.40;49.10
20483;DHT22;10400;53.198;6.592;2023-09-19T13:11:02;18.30;52.50
20483;DHT22;10400;53.198;6.592;2023-09-19T13:13:28;18.30;48.70
20483;DHT22;10400;53.198;6.592;2023-09-19T13:15:55;18.30;67.80
20483;DHT22;10400;53.198;6.592;2023-09-19T13:18:23;18.30;60.00
20483;DHT22;10400;53.198;6.592;2023-09-19T13:21:07;18.30;56.50
20483;DHT22;10400;53.198;6.592;2023-09-19T13:23:38;18.30;58.40
20483;DHT22;10400;53.198;6.592;2023-09-19T13:26:03;18.40;58.00
20483;DHT22;10400;53.198;6.592;2023-09-19T13:28:33;18.40;68.30
20483;DHT22;10400;53.198;6.592;2023-09-19T13:30:59;18.30;81.00
20483;DHT22;10400;53.198;6.592;2023-09-19T13:33:25;18.20;97.50
20483;DHT22;10400;53.198;6.592;2023-09-19T13:35:51;18.10;97.70
20483;DHT22;10400;53.198;6.592;2023-09-19T13:38:21;18.10;99.70
20483;DHT22;10400;53.198;6.592;2023-09-19T13:40:48;18.10;99.90
20483;DHT22;10400;53.198;6.592;2023-09-19T13:43:13;18.10;99.90
20483;DHT22;10400;53.198;6.592;2023-09-19T13:45:44;18.10;99.90
20483;DHT22;10400;53.198;6.592;2023-09-19T13:48:09;18.10;99.90
20483;DHT22;10400;53.198;6.592;2023-09-19T13:50:43;18.00;99.90
20483;DHT22;10400;53.198;6.592;2023-09-19T13:53:09;18.10;99.90
20483;DHT22;10400;53.198;6.592;2023-09-19T13:55:35;18.20;99.90
20483;DHT22;10400;53.198;6.592;2023-09-19T13:58:05;18.30;99.90
20483;DHT22;10400;53.198;6.592;2023-09-19T14:00:32;18.30;99.90
20483;DHT22;10400;53.198;6.592;2023-09-19T14:03:02;18.40;99.90
20483;DHT22;10400;53.198;6.592;2023-09-19T14:05:30;18.40;99.90
20483;DHT22;10400;53.198;6.592;2023-09-19T14:07:56;18.40;99.90
20483;DHT22;10400;53.198;6.592;2023-09-19T14:10:25;18.40;99.90
20483;DHT22;10400;53.198;6.592;2023-09-19T14:12:55;18.30;99.90
20483;DHT22;10400;53.198;6.592;2023-09-19T14:15:21;18.30;99.90
20483;DHT22;10400;53.198;6.592;2023-09-19T14:17:58;18.30;99.90
20483;DHT22;10400;53.198;6.592;2023-09-19T14:20:24;18.40;99.90
20483;DHT22;10400;53.198;6.592;2023-09-19T14:22:54;18.50;99.90
20483;DHT22;10400;53.198;6.592;2023-09-19T14:25:20;18.50;99.90
20483;DHT22;10400;53.198;6.592;2023-09-19T14:27:47;18.60;99.90
20483;DHT22;10400;53.198;6.592;2023-09-19T14:30:13;18.50;99.90
20483;DHT22;10400;53.198;6.592;2023-09-19T14:32:39;18.50;95.00
20483;DHT22;10400;53.198;6.592;2023-09-19T14:35:08;18.50;95.00
20483;DHT22;10400;53.198;6.592;2023-09-19T14:37:39;18.50;96.20
20483;DHT22;10400;53.198;6.592;2023-09-19T14:40:05;18.60;95.30
20483;DHT22;10400;53.198;6.592;2023-09-19T14:42:35;18.50;96.20
20483;DHT22;10400;53.198;6.592;2023-09-19T14:45:02;18.60;91.90
20483;DHT22;10400;53.198;6.592;2023-09-19T14:47:30;18.60;82.20
20483;DHT22;10400;53.198;6.592;2023-09-19T14:49:57;18.60;74.90
20483;DHT22;10400;53.198;6.592;2023-09-19T14:52:23;18.70;79.30
20483;DHT22;10400;53.198;6.592;2023-09-19T14:54:52;18.60;91.80
20483;DHT22;10400;53.198;6.592;2023-09-19T14:57:18;18.60;97.60
20483;DHT22;10400;53.198;6.592;2023-09-19T14:59:44;18.50;99.00
20483;DHT22;10400;53.198;6.592;2023-09-19T15:02:10;18.50;99.90
20483;DHT22;10400;53.198;6.592;2023-09-19T15:04:35;18.50;99.90
20483;DHT22;10400;53.198;6.592;2023-09-19T15:07:01;18.50;99.90
20483;DHT22;10400;53.198;6.592;2023-09-19T15:09:28;18.50;99.90
20483;DHT22;10400;53.198;6.592;2023-09-19T15:11:55;18.30;99.90
20483;DHT22;10400;53.198;6.592;2023-09-19T15:14:21;18.20;99.90
20483;DHT22;10400;53.198;6.592;2023-09-19T15:16:48;18.20;99.90
20483;DHT22;10400;53.198;6.592;2023-09-19T15:19:14;18.20;99.90
20483;DHT22;10400;53.198;6.592;2023-09-19T15:21:41;18.20;99.90
20483;DHT22;10400;53.198;6.592;2023-09-19T15:24:07;18.20;99.90
20483;DHT22;10400;53.198;6.592;2023-09-19T15:26:38;18.20;99.90
20483;DHT22;10400;53.198;6.592;2023-09-19T15:29:07;18.20;99.90
20483;DHT22;10400;53.198;6.592;2023-09-19T15:31:35;18.10;99.90
20483;DHT22;10400;53.198;6.592;2023-09-19T15:34:04;18.10;99.90
20483;DHT22;10400;53.198;6.592;2023-09-19T15:36:31;18.00;99.90
20483;DHT22;10400;53.198;6.592;2023-09-19T15:39:05;17.90;99.90
20483;DHT22;10400;53.198;6.592;2023-09-19T15:41:41;17.90;99.90
20483;DHT22;10400;53.198;6.592;2023-09-19T15:44:15;17.90;99.90
20483;DHT22;10400;53.198;6.592;2023-09-19T15:46:41;17.80;99.90
20483;DHT22;10400;53.198;6.592;2023-09-19T15:49:07;17.80;99.90
20483;DHT22;10400;53.198;6.592;2023-09-19T15:51:34;17.70;99.90
20483;DHT22;10400;53.198;6.592;2023-09-19T15:54:01;17.70;99.90
20483;DHT22;10400;53.198;6.592;2023-09-19T15:56:33;17.60;99.90
20483;DHT22;10400;53.198;6.592;2023-09-19T15:59:00;17.60;99.90
20483;DHT22;10400;53.198;6.592;2023-09-19T16:01:26;17.60;99.90
20483;DHT22;10400;53.198;6.592;2023-09-19T16:03:53;17.60;99.90
20483;DHT22;10400;53.198;6.592;2023-09-19T16:06:28;17.50;99.90
20483;DHT22;10400;53.198;6.592;2023-09-19T16:08:56;17.50;99.90
20483;DHT22;10400;53.198;6.592;2023-09-19T16:11:24;17.50;99.90
20483;DHT22;10400;53.198;6.592;2023-09-19T16:13:51;17.50;99.90
20483;DHT22;10400;53.198;6.592;2023-09-19T16:16:18;17.60;99.90
20483;DHT22;10400;53.198;6.592;2023-09-19T16:18:55;17.60;99.90
20483;DHT22;10400;53.198;6.592;2023-09-19T16:21:27;17.60;99.90
20483;DHT22;10400;53.198;6.592;2023-09-19T16:23:54;17.60;99.90
20483;DHT22;10400;53.198;6.592;2023-09-19T16:26:21;17.50;99.90
20483;DHT22;10400;53.198;6.592;2023-09-19T16:28:49;17.50;99.90
20483;DHT22;10400;53.198;6.592;2023-09-19T16:31:15;17.50;99.90